أنطاليا, تركيا

12:06 PM EEST on êèنêè 26, 2014 (GMT +0300)
Antalya (LTAI) Elev 174 ft | 36.90 °N, 30.80 °E | Change Station

Current weather conditions updated 16 minutes ago

Scattered Clouds
غيوم متفرقة
84 °F
Feels Like 90 °F
N
8
ريح متغير ريح from SSE

Today is forecast to be nearly the same temperature as yesterday.

هذا اليوم
High -- | Low -- °F
--% Chance of Precip.
Yesterday
High -- | Low -- °F
Precip. -- في
5:57 AM 8:09 PM
الهلال الأخير, 0% visible
الضغط 29.71 في
وضوح الرؤية 6.2 أميال
سحابات غيوم متفرقة 3000 ft
مؤشر الحرارة 90 °F
نقطة الندى 72 °F
الرطوبة 66%
Rainfall 0.00 في
عمق الثلج Not available.
الأشعة فوق البنفسجية 9 out of 12
Pollen Not available.
جودة الهواء Not available.
Flu Activity Not available.
METAR LTAI 260850Z 15007KT 100V200 9999 SCT030 29/22 Q1006 NOSIG RMK RWY18C 17009KT RWY36R 16008KT 110V200 RWY18L 17008KT 120V230

More Conditions Fewer Conditions

الضغط 29.71 في
وضوح الرؤية 6.2 أميال
سحابات غيوم متفرقة 3000 ft
مؤشر الحرارة 90 °F
نقطة الندى 72 °F
الرطوبة 66%
Rainfall 0.00 في
عمق الثلج Not available.
الأشعة فوق البنفسجية 9 out of 12
Pollen Not available.
جودة الهواء Not available.
Flu Activity Not available.
METAR LTAI 260850Z 15007KT 100V200 9999 SCT030 29/22 Q1006 NOSIG RMK RWY18C 17009KT RWY36R 16008KT 110V200 RWY18L 17008KT 120V230

More Conditions Fewer Conditions

10-Day Weather Forecast

Almanac

علم الفلك

Jul. 26, 2014 Rise Set
Actual Time 5:57 AM EEST 8:09 PM EEST
Civil Twilight 5:28 AM EEST 8:38 PM EEST
Nautical Twilight 4:52 AM EEST 9:13 PM EEST
Astronomical Twilight 4:13 AM EEST 9:52 PM EEST
قمر 5:30 AM EEST 7:33 PM EEST
Length Of Visible Light 15h 09m
طول الیوم
14h 11m
Tomorrow will be 1m 36s shorter.
الهلال الأخير, 0% of the Moon is Illuminated
هذا اليوم
الهلال الأخير
Jul 26
New
Aug 3
الربع الاول
Aug 10
بدر
Aug 17
الربع الآخر

Yesterday's Extremes

Country Highs Country Lows

Community

WunderPhotos

Upload Photos

1,737,529 photos uploaded!

Nearby

جودة الهواء

Not available.

عمق الثلج

Not available.

Earthquake Activity

City Distance Mag. Time & Date
No recent earthquake activity has been reported nearby.
Minimum magnitude displayed is 2.5.

Coastal Water Temperatures

مكان درجات الحرارة
No Stations Reporting

Nearby Weather Stations

There are no personal weather stations in this area.